This is the latest recevied weather packets stored in our database for station/object DC4THF-13. If no packets are shown the sender has not sent any weather packets the latest 10 day(s).
| Time | Temp. | Humidity | Pressure | Rain* | Wind** | Luminosity | Snow |
|---|---|---|---|---|---|---|---|
| 1777784583 | 14.44° C | 54% | 1008.5 hPa | 0 mm | - | - | - |
| 1777783979 | 13.89° C | 59% | 1008.5 hPa | 0 mm | - | - | - |
| 1777783375 | 11.67° C | 65% | 1008.4 hPa | 0 mm | - | - | - |
| 1777782771 | 10.56° C | 66% | 1008.5 hPa | 0 mm | - | - | - |
| 1777782167 | 10.56° C | 66% | 1008.7 hPa | 0 mm | - | - | - |
| 1777781564 | 10.56° C | 65% | 1008.7 hPa | 0 mm | - | - | - |
| 1777780960 | 10.56° C | 66% | 1008.7 hPa | 0 mm | - | - | - |
| 1777780357 | 10° C | 68% | 1008.8 hPa | 0 mm | - | - | - |
| 1777779754 | 10° C | 70% | 1008.6 hPa | 0 mm | - | - | - |
| 1777779150 | 8.89° C | 72% | 1008.7 hPa | 0 mm | - | - | - |
| 1777778547 | 8.33° C | 72% | 1008.6 hPa | 0 mm | - | - | - |
| 1777777944 | 8.33° C | 71% | 1008.6 hPa | 0 mm | - | - | - |
| 1777777341 | 8.33° C | 71% | 1008.6 hPa | 0 mm | - | - | - |
| 1777776738 | 8.89° C | 70% | 1008.7 hPa | 0 mm | - | - | - |
| 1777776195 | 8.89° C | 70% | 1008.7 hPa | 0 mm | - | - | - |
| 1777775592 | 8.89° C | 70% | 1008.9 hPa | 0 mm | - | - | - |
| 1777774988 | 9.44° C | 70% | 1008.8 hPa | 0 mm | - | - | - |
| 1777774385 | 9.44° C | 69% | 1008.7 hPa | 0 mm | - | - | - |
| 1777773782 | 10° C | 67% | 1008.7 hPa | 0 mm | - | - | - |
| 1777773179 | 10° C | 65% | 1008.9 hPa | 0 mm | - | - | - |
| 1777772576 | 10.56° C | 63% | 1008.8 hPa | 0 mm | - | - | - |
| 1777771972 | 11.11° C | 62% | 1008.9 hPa | 0 mm | - | - | - |
| 1777771369 | 11.67° C | 61% | 1008.8 hPa | 0 mm | - | - | - |
| 1777770766 | 11.67° C | 61% | 1008.8 hPa | 0 mm | - | - | - |
| 1777770162 | 11.67° C | 62% | 1009 hPa | 0 mm | - | - | - |
* Rain latest hour (hover to see other rain measurements)
** Current wind speed in m/s (hover to see current wind gust speed)